sensor_id;sensor_type;location;lat;lon;timestamp;temperature;humidity
9980;DHT22;5030;51.532;6.766;2022-08-01T00:01:44;19.40;99.90
9980;DHT22;5030;51.532;6.766;2022-08-01T00:04:10;19.40;99.90
9980;DHT22;5030;51.532;6.766;2022-08-01T00:06:37;19.40;99.90
9980;DHT22;5030;51.532;6.766;2022-08-01T00:09:02;19.30;99.90
9980;DHT22;5030;51.532;6.766;2022-08-01T00:11:28;19.30;99.90
9980;DHT22;5030;51.532;6.766;2022-08-01T00:13:54;19.30;99.90
9980;DHT22;5030;51.532;6.766;2022-08-01T00:16:20;19.30;99.90
9980;DHT22;5030;51.532;6.766;2022-08-01T00:18:49;19.30;99.90
9980;DHT22;5030;51.532;6.766;2022-08-01T00:21:15;19.30;99.90
9980;DHT22;5030;51.532;6.766;2022-08-01T00:23:41;19.30;99.90
9980;DHT22;5030;51.532;6.766;2022-08-01T00:26:07;19.30;99.90
9980;DHT22;5030;51.532;6.766;2022-08-01T00:28:33;19.30;99.90
9980;DHT22;5030;51.532;6.766;2022-08-01T00:30:59;19.40;99.90
9980;DHT22;5030;51.532;6.766;2022-08-01T00:33:25;19.30;99.90
9980;DHT22;5030;51.532;6.766;2022-08-01T00:35:50;19.30;99.90
9980;DHT22;5030;51.532;6.766;2022-08-01T00:38:16;19.40;99.90
9980;DHT22;5030;51.532;6.766;2022-08-01T00:40:42;19.40;99.90
9980;DHT22;5030;51.532;6.766;2022-08-01T00:43:07;19.40;99.90
9980;DHT22;5030;51.532;6.766;2022-08-01T00:45:33;19.40;99.90
9980;DHT22;5030;51.532;6.766;2022-08-01T00:47:59;19.40;99.90
9980;DHT22;5030;51.532;6.766;2022-08-01T00:50:24;19.50;99.90
9980;DHT22;5030;51.532;6.766;2022-08-01T00:52:50;19.50;99.90
9980;DHT22;5030;51.532;6.766;2022-08-01T00:55:18;19.40;99.90
9980;DHT22;5030;51.532;6.766;2022-08-01T00:57:44;19.40;99.90
9980;DHT22;5030;51.532;6.766;2022-08-01T01:00:10;19.40;99.90
9980;DHT22;5030;51.532;6.766;2022-08-01T01:02:36;19.40;99.90
9980;DHT22;5030;51.532;6.766;2022-08-01T01:05:03;19.40;99.90
9980;DHT22;5030;51.532;6.766;2022-08-01T01:08:12;19.40;99.90
9980;DHT22;5030;51.532;6.766;2022-08-01T01:13:13;19.40;99.90
9980;DHT22;5030;51.532;6.766;2022-08-01T01:16:13;19.40;99.90
9980;DHT22;5030;51.532;6.766;2022-08-01T01:19:00;19.40;99.90
9980;DHT22;5030;51.532;6.766;2022-08-01T01:29:52;19.50;99.90
9980;DHT22;5030;51.532;6.766;2022-08-01T01:35:06;19.50;99.90
9980;DHT22;5030;51.532;6.766;2022-08-01T01:37:34;19.50;99.90
9980;DHT22;5030;51.532;6.766;2022-08-01T01:40:02;19.50;99.90
9980;DHT22;5030;51.532;6.766;2022-08-01T01:42:30;19.50;99.90
9980;DHT22;5030;51.532;6.766;2022-08-01T01:44:58;19.40;99.90
9980;DHT22;5030;51.532;6.766;2022-08-01T01:47:25;19.40;99.90
9980;DHT22;5030;51.532;6.766;2022-08-01T01:49:54;19.50;99.90
9980;DHT22;5030;51.532;6.766;2022-08-01T01:52:21;19.50;99.90
9980;DHT22;5030;51.532;6.766;2022-08-01T01:54:50;19.50;99.90
9980;DHT22;5030;51.532;6.766;2022-08-01T01:59:53;19.50;99.90
9980;DHT22;5030;51.532;6.766;2022-08-01T02:02:20;19.50;99.90
9980;DHT22;5030;51.532;6.766;2022-08-01T02:04:48;19.50;99.90
9980;DHT22;5030;51.532;6.766;2022-08-01T02:07:21;19.50;99.90
9980;DHT22;5030;51.532;6.766;2022-08-01T02:09:48;19.50;99.90
9980;DHT22;5030;51.532;6.766;2022-08-01T02:12:16;19.50;99.90
9980;DHT22;5030;51.532;6.766;2022-08-01T02:14:44;19.40;99.90
9980;DHT22;5030;51.532;6.766;2022-08-01T02:17:12;19.40;99.90
9980;DHT22;5030;51.532;6.766;2022-08-01T02:19:41;19.30;99.90
9980;DHT22;5030;51.532;6.766;2022-08-01T02:22:14;19.40;99.90
9980;DHT22;5030;51.532;6.766;2022-08-01T02:27:17;19.30;99.90
9980;DHT22;5030;51.532;6.766;2022-08-01T02:30:00;19.20;99.90
9980;DHT22;5030;51.532;6.766;2022-08-01T02:32:31;19.20;99.90
9980;DHT22;5030;51.532;6.766;2022-08-01T02:35:00;19.20;99.90
9980;DHT22;5030;51.532;6.766;2022-08-01T02:37:29;19.20;99.90
9980;DHT22;5030;51.532;6.766;2022-08-01T02:39:59;19.10;99.90
9980;DHT22;5030;51.532;6.766;2022-08-01T02:42:26;19.10;99.90
9980;DHT22;5030;51.532;6.766;2022-08-01T02:44:56;19.00;99.90
9980;DHT22;5030;51.532;6.766;2022-08-01T02:47:23;19.00;99.90
9980;DHT22;5030;51.532;6.766;2022-08-01T02:49:52;18.90;99.90
9980;DHT22;5030;51.532;6.766;2022-08-01T02:52:20;18.90;99.90
9980;DHT22;5030;51.532;6.766;2022-08-01T02:54:49;18.90;99.90
9980;DHT22;5030;51.532;6.766;2022-08-01T02:57:16;18.80;99.90
9980;DHT22;5030;51.532;6.766;2022-08-01T02:59:44;18.80;99.90
9980;DHT22;5030;51.532;6.766;2022-08-01T03:02:12;18.80;99.90
9980;DHT22;5030;51.532;6.766;2022-08-01T03:04:40;18.70;99.90
9980;DHT22;5030;51.532;6.766;2022-08-01T03:07:08;18.80;99.90
9980;DHT22;5030;51.532;6.766;2022-08-01T03:09:38;18.80;99.90
9980;DHT22;5030;51.532;6.766;2022-08-01T03:12:10;18.80;99.90
9980;DHT22;5030;51.532;6.766;2022-08-01T03:14:38;18.80;99.90
9980;DHT22;5030;51.532;6.766;2022-08-01T03:17:06;18.70;99.90
9980;DHT22;5030;51.532;6.766;2022-08-01T03:19:33;18.70;99.90
9980;DHT22;5030;51.532;6.766;2022-08-01T03:22:00;18.80;99.90
9980;DHT22;5030;51.532;6.766;2022-08-01T03:24:30;18.80;99.90
9980;DHT22;5030;51.532;6.766;2022-08-01T03:26:57;18.80;99.90
9980;DHT22;5030;51.532;6.766;2022-08-01T03:29:25;18.80;99.90
9980;DHT22;5030;51.532;6.766;2022-08-01T03:31:53;18.70;99.90
9980;DHT22;5030;51.532;6.766;2022-08-01T03:34:19;18.70;99.90
9980;DHT22;5030;51.532;6.766;2022-08-01T03:37:54;18.80;99.90
9980;DHT22;5030;51.532;6.766;2022-08-01T03:40:05;18.80;99.90
9980;DHT22;5030;51.532;6.766;2022-08-01T03:42:35;18.80;99.90
9980;DHT22;5030;51.532;6.766;2022-08-01T03:45:06;18.80;99.90
9980;DHT22;5030;51.532;6.766;2022-08-01T03:47:35;18.80;99.90
9980;DHT22;5030;51.532;6.766;2022-08-01T03:50:05;18.70;99.90
9980;DHT22;5030;51.532;6.766;2022-08-01T03:52:32;18.70;99.90
9980;DHT22;5030;51.532;6.766;2022-08-01T03:55:03;18.70;99.90
9980;DHT22;5030;51.532;6.766;2022-08-01T03:57:30;18.70;99.90
9980;DHT22;5030;51.532;6.766;2022-08-01T04:00:00;18.70;99.90
9980;DHT22;5030;51.532;6.766;2022-08-01T04:02:29;18.60;99.90
9980;DHT22;5030;51.532;6.766;2022-08-01T04:04:55;18.60;99.90
9980;DHT22;5030;51.532;6.766;2022-08-01T04:07:26;18.60;99.90
9980;DHT22;5030;51.532;6.766;2022-08-01T04:09:52;18.60;99.90
9980;DHT22;5030;51.532;6.766;2022-08-01T04:12:18;18.60;99.90
9980;DHT22;5030;51.532;6.766;2022-08-01T04:14:44;18.60;99.90
9980;DHT22;5030;51.532;6.766;2022-08-01T04:17:09;18.50;99.90
9980;DHT22;5030;51.532;6.766;2022-08-01T04:19:35;18.50;99.90
9980;DHT22;5030;51.532;6.766;2022-08-01T04:22:01;18.50;99.90
9980;DHT22;5030;51.532;6.766;2022-08-01T04:24:29;18.50;99.90
9980;DHT22;5030;51.532;6.766;2022-08-01T04:26:56;18.60;99.90
9980;DHT22;5030;51.532;6.766;2022-08-01T04:29:24;18.60;99.90
9980;DHT22;5030;51.532;6.766;2022-08-01T04:31:53;18.60;99.90
9980;DHT22;5030;51.532;6.766;2022-08-01T04:34:21;18.60;99.90
9980;DHT22;5030;51.532;6.766;2022-08-01T04:36:48;18.70;99.90
9980;DHT22;5030;51.532;6.766;2022-08-01T04:39:17;18.60;99.90
9980;DHT22;5030;51.532;6.766;2022-08-01T04:41:44;18.70;99.90
9980;DHT22;5030;51.532;6.766;2022-08-01T04:44:12;18.70;99.90
9980;DHT22;5030;51.532;6.766;2022-08-01T04:46:39;18.70;99.90
9980;DHT22;5030;51.532;6.766;2022-08-01T04:49:08;18.70;99.90
9980;DHT22;5030;51.532;6.766;2022-08-01T04:51:48;18.70;99.90
9980;DHT22;5030;51.532;6.766;2022-08-01T04:54:14;18.70;99.90
9980;DHT22;5030;51.532;6.766;2022-08-01T04:56:40;18.70;99.90
9980;DHT22;5030;51.532;6.766;2022-08-01T04:59:07;18.70;99.90
9980;DHT22;5030;51.532;6.766;2022-08-01T05:01:50;18.70;99.90
9980;DHT22;5030;51.532;6.766;2022-08-01T05:04:16;18.60;99.90
9980;DHT22;5030;51.532;6.766;2022-08-01T05:06:42;18.70;99.90
9980;DHT22;5030;51.532;6.766;2022-08-01T05:09:07;18.70;99.90
9980;DHT22;5030;51.532;6.766;2022-08-01T05:11:33;18.70;99.90
9980;DHT22;5030;51.532;6.766;2022-08-01T05:13:59;18.80;99.90
9980;DHT22;5030;51.532;6.766;2022-08-01T05:16:24;18.80;99.90
9980;DHT22;5030;51.532;6.766;2022-08-01T05:18:50;18.80;99.90
9980;DHT22;5030;51.532;6.766;2022-08-01T05:21:16;18.80;99.90
9980;DHT22;5030;51.532;6.766;2022-08-01T05:23:42;18.80;99.90
9980;DHT22;5030;51.532;6.766;2022-08-01T05:26:08;18.80;99.90
9980;DHT22;5030;51.532;6.766;2022-08-01T05:28:34;18.70;99.90
9980;DHT22;5030;51.532;6.766;2022-08-01T05:30:59;18.70;99.90
9980;DHT22;5030;51.532;6.766;2022-08-01T05:33:25;18.80;99.90
9980;DHT22;5030;51.532;6.766;2022-08-01T05:35:51;18.80;99.90
9980;DHT22;5030;51.532;6.766;2022-08-01T05:38:16;18.80;99.90
9980;DHT22;5030;51.532;6.766;2022-08-01T05:40:42;18.90;99.90
9980;DHT22;5030;51.532;6.766;2022-08-01T05:43:08;19.00;99.90
9980;DHT22;5030;51.532;6.766;2022-08-01T05:45:33;19.00;99.90
9980;DHT22;5030;51.532;6.766;2022-08-01T05:47:59;19.00;99.90
9980;DHT22;5030;51.532;6.766;2022-08-01T05:50:24;19.10;99.90
9980;DHT22;5030;51.532;6.766;2022-08-01T05:52:50;19.10;99.90
9980;DHT22;5030;51.532;6.766;2022-08-01T05:55:16;19.20;99.90
9980;DHT22;5030;51.532;6.766;2022-08-01T05:57:41;19.20;99.90
9980;DHT22;5030;51.532;6.766;2022-08-01T06:00:07;19.20;99.90
9980;DHT22;5030;51.532;6.766;2022-08-01T06:02:33;19.20;99.90
9980;DHT22;5030;51.532;6.766;2022-08-01T06:04:59;19.30;99.90
9980;DHT22;5030;51.532;6.766;2022-08-01T06:07:25;19.30;99.90
9980;DHT22;5030;51.532;6.766;2022-08-01T06:09:50;19.30;99.90
9980;DHT22;5030;51.532;6.766;2022-08-01T06:12:16;19.40;99.90
9980;DHT22;5030;51.532;6.766;2022-08-01T06:14:41;19.40;99.90
9980;DHT22;5030;51.532;6.766;2022-08-01T06:17:07;19.60;99.90
9980;DHT22;5030;51.532;6.766;2022-08-01T06:19:33;19.70;99.90
9980;DHT22;5030;51.532;6.766;2022-08-01T06:21:58;19.60;99.90
9980;DHT22;5030;51.532;6.766;2022-08-01T06:24:24;19.60;99.90
9980;DHT22;5030;51.532;6.766;2022-08-01T06:26:50;19.60;99.90
9980;DHT22;5030;51.532;6.766;2022-08-01T06:29:15;19.60;99.90
9980;DHT22;5030;51.532;6.766;2022-08-01T06:31:41;19.60;99.90
9980;DHT22;5030;51.532;6.766;2022-08-01T06:34:06;19.50;99.90
9980;DHT22;5030;51.532;6.766;2022-08-01T06:36:32;19.50;99.90
9980;DHT22;5030;51.532;6.766;2022-08-01T06:38:58;19.50;99.90
9980;DHT22;5030;51.532;6.766;2022-08-01T06:41:25;19.70;99.90
9980;DHT22;5030;51.532;6.766;2022-08-01T06:43:50;19.80;99.90
9980;DHT22;5030;51.532;6.766;2022-08-01T06:46:16;19.90;99.90
9980;DHT22;5030;51.532;6.766;2022-08-01T06:48:42;19.90;99.90
9980;DHT22;5030;51.532;6.766;2022-08-01T06:51:08;19.90;99.90
9980;DHT22;5030;51.532;6.766;2022-08-01T06:53:37;19.80;99.90
9980;DHT22;5030;51.532;6.766;2022-08-01T06:56:03;20.00;99.90
9980;DHT22;5030;51.532;6.766;2022-08-01T06:58:29;20.10;99.90
9980;DHT22;5030;51.532;6.766;2022-08-01T07:00:55;20.20;99.90
9980;DHT22;5030;51.532;6.766;2022-08-01T07:03:20;20.40;99.90
9980;DHT22;5030;51.532;6.766;2022-08-01T07:05:46;20.50;99.90
9980;DHT22;5030;51.532;6.766;2022-08-01T07:08:12;20.60;99.90
9980;DHT22;5030;51.532;6.766;2022-08-01T07:10:37;20.50;99.90
9980;DHT22;5030;51.532;6.766;2022-08-01T07:13:03;20.60;99.90
9980;DHT22;5030;51.532;6.766;2022-08-01T07:15:29;20.60;99.90
9980;DHT22;5030;51.532;6.766;2022-08-01T07:17:54;20.60;99.90
9980;DHT22;5030;51.532;6.766;2022-08-01T07:20:20;20.80;99.90
9980;DHT22;5030;51.532;6.766;2022-08-01T07:22:45;21.10;99.90
9980;DHT22;5030;51.532;6.766;2022-08-01T07:25:11;21.10;99.90
9980;DHT22;5030;51.532;6.766;2022-08-01T07:27:37;21.10;99.90
9980;DHT22;5030;51.532;6.766;2022-08-01T07:30:04;20.80;99.90
9980;DHT22;5030;51.532;6.766;2022-08-01T07:32:30;20.80;99.90
9980;DHT22;5030;51.532;6.766;2022-08-01T07:34:56;20.80;99.90
9980;DHT22;5030;51.532;6.766;2022-08-01T07:37:22;20.90;99.90
9980;DHT22;5030;51.532;6.766;2022-08-01T07:39:49;21.00;99.90
9980;DHT22;5030;51.532;6.766;2022-08-01T07:42:15;21.10;99.90
9980;DHT22;5030;51.532;6.766;2022-08-01T07:44:40;21.10;99.90
9980;DHT22;5030;51.532;6.766;2022-08-01T07:47:06;21.10;99.90
9980;DHT22;5030;51.532;6.766;2022-08-01T07:49:32;21.00;99.90
9980;DHT22;5030;51.532;6.766;2022-08-01T07:51:57;20.90;99.90
9980;DHT22;5030;51.532;6.766;2022-08-01T07:54:23;21.20;99.90
9980;DHT22;5030;51.532;6.766;2022-08-01T07:56:53;21.50;99.90
9980;DHT22;5030;51.532;6.766;2022-08-01T07:59:19;21.60;99.90
9980;DHT22;5030;51.532;6.766;2022-08-01T08:01:49;21.50;99.90
9980;DHT22;5030;51.532;6.766;2022-08-01T08:04:16;21.50;99.90
9980;DHT22;5030;51.532;6.766;2022-08-01T08:06:42;21.40;99.90
9980;DHT22;5030;51.532;6.766;2022-08-01T08:09:08;21.30;99.90
9980;DHT22;5030;51.532;6.766;2022-08-01T08:11:34;21.20;99.90
9980;DHT22;5030;51.532;6.766;2022-08-01T08:13:59;21.20;99.90
9980;DHT22;5030;51.532;6.766;2022-08-01T08:16:25;21.20;99.90
9980;DHT22;5030;51.532;6.766;2022-08-01T08:18:51;21.30;99.90
9980;DHT22;5030;51.532;6.766;2022-08-01T08:21:17;21.30;99.90
9980;DHT22;5030;51.532;6.766;2022-08-01T08:23:43;21.40;99.90
9980;DHT22;5030;51.532;6.766;2022-08-01T08:26:27;21.70;99.90
9980;DHT22;5030;51.532;6.766;2022-08-01T08:28:53;21.80;99.90
9980;DHT22;5030;51.532;6.766;2022-08-01T08:31:18;21.70;99.90
9980;DHT22;5030;51.532;6.766;2022-08-01T08:33:44;21.60;99.90
9980;DHT22;5030;51.532;6.766;2022-08-01T08:36:09;21.70;99.90
9980;DHT22;5030;51.532;6.766;2022-08-01T08:38:36;21.60;99.90
9980;DHT22;5030;51.532;6.766;2022-08-01T08:41:02;21.70;99.90
9980;DHT22;5030;51.532;6.766;2022-08-01T08:43:28;21.70;99.90
9980;DHT22;5030;51.532;6.766;2022-08-01T08:45:53;22.00;99.90
9980;DHT22;5030;51.532;6.766;2022-08-01T08:48:20;22.20;99.90
9980;DHT22;5030;51.532;6.766;2022-08-01T08:50:48;22.30;99.90
9980;DHT22;5030;51.532;6.766;2022-08-01T08:53:15;22.30;99.90
9980;DHT22;5030;51.532;6.766;2022-08-01T08:55:42;22.20;99.90
9980;DHT22;5030;51.532;6.766;2022-08-01T08:58:13;22.30;99.90
9980;DHT22;5030;51.532;6.766;2022-08-01T09:00:40;22.10;99.90
9980;DHT22;5030;51.532;6.766;2022-08-01T09:03:07;22.10;99.90
9980;DHT22;5030;51.532;6.766;2022-08-01T09:05:33;22.10;99.90
9980;DHT22;5030;51.532;6.766;2022-08-01T09:07:59;22.30;99.90
9980;DHT22;5030;51.532;6.766;2022-08-01T09:10:25;22.40;99.90
9980;DHT22;5030;51.532;6.766;2022-08-01T09:13:11;22.30;99.90
9980;DHT22;5030;51.532;6.766;2022-08-01T09:16:04;22.30;99.90
9980;DHT22;5030;51.532;6.766;2022-08-01T09:23:43;22.00;99.90
9980;DHT22;5030;51.532;6.766;2022-08-01T09:26:12;22.20;99.90
9980;DHT22;5030;51.532;6.766;2022-08-01T09:28:38;22.60;99.90
9980;DHT22;5030;51.532;6.766;2022-08-01T09:31:09;23.00;99.90
9980;DHT22;5030;51.532;6.766;2022-08-01T09:34:01;23.40;99.90
9980;DHT22;5030;51.532;6.766;2022-08-01T09:36:50;23.30;99.90
9980;DHT22;5030;51.532;6.766;2022-08-01T09:39:26;23.20;99.90
9980;DHT22;5030;51.532;6.766;2022-08-01T09:41:53;22.90;99.90
9980;DHT22;5030;51.532;6.766;2022-08-01T09:44:19;22.60;99.90
9980;DHT22;5030;51.532;6.766;2022-08-01T09:46:55;22.50;99.90
9980;DHT22;5030;51.532;6.766;2022-08-01T09:49:30;22.70;99.90
9980;DHT22;5030;51.532;6.766;2022-08-01T09:51:58;22.90;99.90
9980;DHT22;5030;51.532;6.766;2022-08-01T09:54:32;22.90;99.90
9980;DHT22;5030;51.532;6.766;2022-08-01T09:57:10;23.10;99.90
9980;DHT22;5030;51.532;6.766;2022-08-01T09:59:37;23.10;99.90
9980;DHT22;5030;51.532;6.766;2022-08-01T10:02:05;23.50;99.90
9980;DHT22;5030;51.532;6.766;2022-08-01T10:04:31;23.70;99.90
9980;DHT22;5030;51.532;6.766;2022-08-01T10:07:07;23.90;99.90
9980;DHT22;5030;51.532;6.766;2022-08-01T10:09:34;24.10;99.90
9980;DHT22;5030;51.532;6.766;2022-08-01T10:12:01;23.30;99.90
9980;DHT22;5030;51.532;6.766;2022-08-01T10:14:28;23.20;99.90
9980;DHT22;5030;51.532;6.766;2022-08-01T10:16:56;23.20;99.90
9980;DHT22;5030;51.532;6.766;2022-08-01T10:19:25;23.10;99.90
9980;DHT22;5030;51.532;6.766;2022-08-01T10:21:52;23.20;99.90
9980;DHT22;5030;51.532;6.766;2022-08-01T10:24:22;23.20;99.90
9980;DHT22;5030;51.532;6.766;2022-08-01T10:26:51;23.00;99.90
9980;DHT22;5030;51.532;6.766;2022-08-01T10:29:18;23.10;99.90
9980;DHT22;5030;51.532;6.766;2022-08-01T10:31:46;23.10;99.90
9980;DHT22;5030;51.532;6.766;2022-08-01T10:34:14;23.10;99.90
9980;DHT22;5030;51.532;6.766;2022-08-01T10:36:43;23.00;99.90
9980;DHT22;5030;51.532;6.766;2022-08-01T10:39:12;23.00;99.90
9980;DHT22;5030;51.532;6.766;2022-08-01T10:41:39;23.10;99.90
9980;DHT22;5030;51.532;6.766;2022-08-01T10:44:08;23.30;99.90
9980;DHT22;5030;51.532;6.766;2022-08-01T10:46:38;23.40;99.90
9980;DHT22;5030;51.532;6.766;2022-08-01T10:49:11;23.60;99.90
9980;DHT22;5030;51.532;6.766;2022-08-01T10:51:39;23.50;99.90
9980;DHT22;5030;51.532;6.766;2022-08-01T10:54:06;24.20;99.90
9980;DHT22;5030;51.532;6.766;2022-08-01T10:56:49;24.40;99.90
9980;DHT22;5030;51.532;6.766;2022-08-01T10:59:28;24.50;99.90
9980;DHT22;5030;51.532;6.766;2022-08-01T11:01:59;24.60;99.90
9980;DHT22;5030;51.532;6.766;2022-08-01T11:04:41;24.70;99.90
9980;DHT22;5030;51.532;6.766;2022-08-01T11:07:16;24.60;99.90
9980;DHT22;5030;51.532;6.766;2022-08-01T11:09:44;25.00;99.90
9980;DHT22;5030;51.532;6.766;2022-08-01T11:12:14;24.90;99.90
9980;DHT22;5030;51.532;6.766;2022-08-01T11:17:38;24.50;99.90
9980;DHT22;5030;51.532;6.766;2022-08-01T11:20:10;24.50;99.90
9980;DHT22;5030;51.532;6.766;2022-08-01T11:30:41;25.70;99.90
9980;DHT22;5030;51.532;6.766;2022-08-01T11:33:07;25.40;99.90
9980;DHT22;5030;51.532;6.766;2022-08-01T11:35:35;24.90;99.90
9980;DHT22;5030;51.532;6.766;2022-08-01T11:38:23;24.40;99.90
9980;DHT22;5030;51.532;6.766;2022-08-01T11:41:16;24.90;99.90
9980;DHT22;5030;51.532;6.766;2022-08-01T11:47:04;25.30;99.90
9980;DHT22;5030;51.532;6.766;2022-08-01T11:49:48;24.90;99.90
9980;DHT22;5030;51.532;6.766;2022-08-01T11:52:30;24.90;99.90
9980;DHT22;5030;51.532;6.766;2022-08-01T11:57:28;24.80;99.90
9980;DHT22;5030;51.532;6.766;2022-08-01T12:00:05;24.70;99.90
9980;DHT22;5030;51.532;6.766;2022-08-01T12:02:36;24.30;99.90
9980;DHT22;5030;51.532;6.766;2022-08-01T12:05:09;23.80;99.90
9980;DHT22;5030;51.532;6.766;2022-08-01T12:07:38;23.60;99.90
9980;DHT22;5030;51.532;6.766;2022-08-01T12:10:05;23.70;99.90
9980;DHT22;5030;51.532;6.766;2022-08-01T12:12:32;23.70;99.90
9980;DHT22;5030;51.532;6.766;2022-08-01T12:15:04;23.90;99.90
9980;DHT22;5030;51.532;6.766;2022-08-01T12:17:48;24.10;99.90
9980;DHT22;5030;51.532;6.766;2022-08-01T12:20:18;24.70;99.90
9980;DHT22;5030;51.532;6.766;2022-08-01T12:22:47;25.50;99.90
9980;DHT22;5030;51.532;6.766;2022-08-01T12:25:15;25.70;95.30
9980;DHT22;5030;51.532;6.766;2022-08-01T12:27:44;25.50;99.90
9980;DHT22;5030;51.532;6.766;2022-08-01T12:30:13;25.30;96.20
9980;DHT22;5030;51.532;6.766;2022-08-01T12:32:40;25.20;98.70
9980;DHT22;5030;51.532;6.766;2022-08-01T12:35:08;25.20;99.90
9980;DHT22;5030;51.532;6.766;2022-08-01T12:37:46;25.40;99.90
9980;DHT22;5030;51.532;6.766;2022-08-01T12:40:35;25.70;99.90
9980;DHT22;5030;51.532;6.766;2022-08-01T12:43:05;25.50;99.90
9980;DHT22;5030;51.532;6.766;2022-08-01T12:45:41;25.70;99.90
9980;DHT22;5030;51.532;6.766;2022-08-01T12:48:13;25.90;99.90
9980;DHT22;5030;51.532;6.766;2022-08-01T12:50:40;25.80;99.80
9980;DHT22;5030;51.532;6.766;2022-08-01T12:53:08;26.10;93.50
9980;DHT22;5030;51.532;6.766;2022-08-01T12:55:45;26.20;95.50
9980;DHT22;5030;51.532;6.766;2022-08-01T12:58:14;26.70;97.00
9980;DHT22;5030;51.532;6.766;2022-08-01T13:00:44;26.60;86.20
9980;DHT22;5030;51.532;6.766;2022-08-01T13:03:20;25.90;93.40
9980;DHT22;5030;51.532;6.766;2022-08-01T13:05:49;25.70;91.10
9980;DHT22;5030;51.532;6.766;2022-08-01T13:10:45;25.30;98.40
9980;DHT22;5030;51.532;6.766;2022-08-01T13:13:13;25.20;99.90
9980;DHT22;5030;51.532;6.766;2022-08-01T13:15:41;25.10;99.90
9980;DHT22;5030;51.532;6.766;2022-08-01T13:18:30;25.00;99.90
9980;DHT22;5030;51.532;6.766;2022-08-01T13:21:31;25.30;99.90
9980;DHT22;5030;51.532;6.766;2022-08-01T13:29:08;26.00;99.90
9980;DHT22;5030;51.532;6.766;2022-08-01T13:31:35;26.30;95.00
9980;DHT22;5030;51.532;6.766;2022-08-01T13:34:02;25.70;96.00
9980;DHT22;5030;51.532;6.766;2022-08-01T13:36:28;25.70;99.90
9980;DHT22;5030;51.532;6.766;2022-08-01T13:39:03;26.10;94.70
9980;DHT22;5030;51.532;6.766;2022-08-01T13:41:48;25.80;93.70
9980;DHT22;5030;51.532;6.766;2022-08-01T13:44:14;25.00;99.50
9980;DHT22;5030;51.532;6.766;2022-08-01T13:46:42;24.60;99.90
9980;DHT22;5030;51.532;6.766;2022-08-01T13:49:09;24.20;99.90
9980;DHT22;5030;51.532;6.766;2022-08-01T13:51:35;24.50;99.90
9980;DHT22;5030;51.532;6.766;2022-08-01T13:54:01;25.20;99.90
9980;DHT22;5030;51.532;6.766;2022-08-01T13:56:28;25.10;98.70
9980;DHT22;5030;51.532;6.766;2022-08-01T13:58:57;24.80;95.30
9980;DHT22;5030;51.532;6.766;2022-08-01T14:01:23;25.10;99.90
9980;DHT22;5030;51.532;6.766;2022-08-01T14:03:49;25.20;98.20
9980;DHT22;5030;51.532;6.766;2022-08-01T14:06:16;25.10;95.10
9980;DHT22;5030;51.532;6.766;2022-08-01T14:08:43;24.90;97.40
9980;DHT22;5030;51.532;6.766;2022-08-01T14:11:09;24.80;99.90
9980;DHT22;5030;51.532;6.766;2022-08-01T14:13:35;24.50;99.90
9980;DHT22;5030;51.532;6.766;2022-08-01T14:16:04;24.40;99.90
9980;DHT22;5030;51.532;6.766;2022-08-01T14:18:30;24.30;99.90
9980;DHT22;5030;51.532;6.766;2022-08-01T14:20:56;24.30;99.90
9980;DHT22;5030;51.532;6.766;2022-08-01T14:23:22;24.10;99.90
9980;DHT22;5030;51.532;6.766;2022-08-01T14:25:47;24.10;99.90
9980;DHT22;5030;51.532;6.766;2022-08-01T14:28:13;24.40;99.90
9980;DHT22;5030;51.532;6.766;2022-08-01T14:30:39;24.70;99.90
9980;DHT22;5030;51.532;6.766;2022-08-01T14:33:06;24.90;99.90
9980;DHT22;5030;51.532;6.766;2022-08-01T14:35:32;25.00;99.90
9980;DHT22;5030;51.532;6.766;2022-08-01T14:37:58;25.10;99.90
9980;DHT22;5030;51.532;6.766;2022-08-01T14:40:23;25.50;97.00
9980;DHT22;5030;51.532;6.766;2022-08-01T14:42:49;25.30;91.30
9980;DHT22;5030;51.532;6.766;2022-08-01T14:45:15;25.10;97.00
9980;DHT22;5030;51.532;6.766;2022-08-01T14:47:42;25.30;97.10
9980;DHT22;5030;51.532;6.766;2022-08-01T14:50:13;25.10;90.80
9980;DHT22;5030;51.532;6.766;2022-08-01T14:52:40;25.20;94.70
9980;DHT22;5030;51.532;6.766;2022-08-01T14:55:08;24.90;98.10
9980;DHT22;5030;51.532;6.766;2022-08-01T14:57:35;24.90;97.10
9980;DHT22;5030;51.532;6.766;2022-08-01T15:00:01;24.90;95.80
9980;DHT22;5030;51.532;6.766;2022-08-01T15:02:27;24.80;96.20
9980;DHT22;5030;51.532;6.766;2022-08-01T15:04:53;24.90;90.50
9980;DHT22;5030;51.532;6.766;2022-08-01T15:07:19;25.40;86.60
9980;DHT22;5030;51.532;6.766;2022-08-01T15:09:44;25.90;84.00
9980;DHT22;5030;51.532;6.766;2022-08-01T15:12:11;26.10;84.80
9980;DHT22;5030;51.532;6.766;2022-08-01T15:14:37;26.10;67.30
9980;DHT22;5030;51.532;6.766;2022-08-01T15:17:20;26.20;72.70
9980;DHT22;5030;51.532;6.766;2022-08-01T15:19:48;26.00;74.70
9980;DHT22;5030;51.532;6.766;2022-08-01T15:22:14;25.90;66.90
9980;DHT22;5030;51.532;6.766;2022-08-01T15:24:40;25.60;83.60
9980;DHT22;5030;51.532;6.766;2022-08-01T15:27:07;25.60;75.30
9980;DHT22;5030;51.532;6.766;2022-08-01T15:29:32;25.40;81.50
9980;DHT22;5030;51.532;6.766;2022-08-01T15:32:00;25.50;92.30
9980;DHT22;5030;51.532;6.766;2022-08-01T15:34:26;26.00;81.30
9980;DHT22;5030;51.532;6.766;2022-08-01T15:36:52;25.90;79.80
9980;DHT22;5030;51.532;6.766;2022-08-01T15:39:17;25.50;76.30
9980;DHT22;5030;51.532;6.766;2022-08-01T15:41:43;25.30;91.20
9980;DHT22;5030;51.532;6.766;2022-08-01T15:44:09;25.30;84.20
9980;DHT22;5030;51.532;6.766;2022-08-01T15:46:35;25.40;87.00
9980;DHT22;5030;51.532;6.766;2022-08-01T15:49:04;25.40;85.00
9980;DHT22;5030;51.532;6.766;2022-08-01T15:51:31;25.90;83.50
9980;DHT22;5030;51.532;6.766;2022-08-01T15:53:57;26.50;75.90
9980;DHT22;5030;51.532;6.766;2022-08-01T15:56:23;26.40;74.80
9980;DHT22;5030;51.532;6.766;2022-08-01T15:58:49;25.40;82.00
9980;DHT22;5030;51.532;6.766;2022-08-01T16:01:15;25.30;94.90
9980;DHT22;5030;51.532;6.766;2022-08-01T16:03:41;25.10;91.80
9980;DHT22;5030;51.532;6.766;2022-08-01T16:06:06;24.70;92.40
9980;DHT22;5030;51.532;6.766;2022-08-01T16:08:32;24.60;96.30
9980;DHT22;5030;51.532;6.766;2022-08-01T16:10:58;25.10;95.20
9980;DHT22;5030;51.532;6.766;2022-08-01T16:13:24;25.40;89.00
9980;DHT22;5030;51.532;6.766;2022-08-01T16:15:50;25.90;79.40
9980;DHT22;5030;51.532;6.766;2022-08-01T16:18:15;26.30;68.70
9980;DHT22;5030;51.532;6.766;2022-08-01T16:20:42;26.50;64.30
9980;DHT22;5030;51.532;6.766;2022-08-01T16:23:08;26.70;58.30
9980;DHT22;5030;51.532;6.766;2022-08-01T16:25:34;26.30;57.80
9980;DHT22;5030;51.532;6.766;2022-08-01T16:28:00;26.00;53.40
9980;DHT22;5030;51.532;6.766;2022-08-01T16:30:26;25.60;65.10
9980;DHT22;5030;51.532;6.766;2022-08-01T16:32:52;25.40;75.30
9980;DHT22;5030;51.532;6.766;2022-08-01T16:35:18;25.40;83.20
9980;DHT22;5030;51.532;6.766;2022-08-01T16:37:44;25.50;80.80
9980;DHT22;5030;51.532;6.766;2022-08-01T16:40:11;25.10;84.70
9980;DHT22;5030;51.532;6.766;2022-08-01T16:42:36;24.80;89.30
9980;DHT22;5030;51.532;6.766;2022-08-01T16:45:02;24.80;90.90
9980;DHT22;5030;51.532;6.766;2022-08-01T16:47:28;24.50;88.80
9980;DHT22;5030;51.532;6.766;2022-08-01T16:49:54;24.30;90.90
9980;DHT22;5030;51.532;6.766;2022-08-01T16:52:20;24.40;96.00
9980;DHT22;5030;51.532;6.766;2022-08-01T16:54:45;24.70;92.50
9980;DHT22;5030;51.532;6.766;2022-08-01T16:57:11;25.10;86.60
9980;DHT22;5030;51.532;6.766;2022-08-01T16:59:38;25.10;83.80